sensor_id;sensor_type;location;lat;lon;timestamp;temperature;humidity
61374;DHT22;47242;48.158;-1.586;2023-02-28T05:30:35;1.90;66.30
61374;DHT22;47242;48.158;-1.586;2023-02-28T05:33:04;2.00;66.10
61374;DHT22;47242;48.158;-1.586;2023-02-28T05:35:29;2.00;66.30
61374;DHT22;47242;48.158;-1.586;2023-02-28T05:37:55;2.00;66.20
61374;DHT22;47242;48.158;-1.586;2023-02-28T05:40:21;2.00;66.20
61374;DHT22;47242;48.158;-1.586;2023-02-28T05:42:47;2.00;66.20
61374;DHT22;47242;48.158;-1.586;2023-02-28T05:45:12;2.00;66.20
61374;DHT22;47242;48.158;-1.586;2023-02-28T05:47:38;2.00;65.90
61374;DHT22;47242;48.158;-1.586;2023-02-28T05:50:04;1.90;66.20
61374;DHT22;47242;48.158;-1.586;2023-02-28T05:52:30;1.90;66.30
61374;DHT22;47242;48.158;-1.586;2023-02-28T05:54:56;1.90;66.20
61374;DHT22;47242;48.158;-1.586;2023-02-28T05:57:23;1.90;66.10
61374;DHT22;47242;48.158;-1.586;2023-02-28T05:59:48;1.70;66.50
61374;DHT22;47242;48.158;-1.586;2023-02-28T06:02:15;1.80;66.30
61374;DHT22;47242;48.158;-1.586;2023-02-28T06:04:42;1.80;66.40
61374;DHT22;47242;48.158;-1.586;2023-02-28T06:07:11;1.70;66.30
61374;DHT22;47242;48.158;-1.586;2023-02-28T06:09:37;1.70;66.40
61374;DHT22;47242;48.158;-1.586;2023-02-28T06:12:05;1.70;66.60
61374;DHT22;47242;48.158;-1.586;2023-02-28T06:14:33;1.60;66.70
61374;DHT22;47242;48.158;-1.586;2023-02-28T06:17:00;1.60;66.70
61374;DHT22;47242;48.158;-1.586;2023-02-28T06:19:26;1.60;66.80
61374;DHT22;47242;48.158;-1.586;2023-02-28T06:21:53;1.60;66.90
61374;DHT22;47242;48.158;-1.586;2023-02-28T06:24:23;1.60;66.70
61374;DHT22;47242;48.158;-1.586;2023-02-28T06:26:50;1.50;66.90
61374;DHT22;47242;48.158;-1.586;2023-02-28T06:29:16;1.50;67.00
61374;DHT22;47242;48.158;-1.586;2023-02-28T06:31:47;1.40;67.30
61374;DHT22;47242;48.158;-1.586;2023-02-28T06:34:13;1.40;67.30
61374;DHT22;47242;48.158;-1.586;2023-02-28T06:36:41;1.50;67.10
61374;DHT22;47242;48.158;-1.586;2023-02-28T06:39:07;1.50;67.10
61374;DHT22;47242;48.158;-1.586;2023-02-28T06:41:33;1.50;67.10
61374;DHT22;47242;48.158;-1.586;2023-02-28T06:44:17;1.50;67.10
61374;DHT22;47242;48.158;-1.586;2023-02-28T06:46:44;1.60;66.80
61374;DHT22;47242;48.158;-1.586;2023-02-28T06:49:11;1.60;66.60
61374;DHT22;47242;48.158;-1.586;2023-02-28T06:51:41;1.70;66.40
61374;DHT22;47242;48.158;-1.586;2023-02-28T06:54:07;1.60;66.60
61374;DHT22;47242;48.158;-1.586;2023-02-28T06:56:36;1.70;66.50
61374;DHT22;47242;48.158;-1.586;2023-02-28T06:59:02;1.70;66.40
61374;DHT22;47242;48.158;-1.586;2023-02-28T07:01:29;1.70;66.40
61374;DHT22;47242;48.158;-1.586;2023-02-28T07:03:58;1.70;66.20
61374;DHT22;47242;48.158;-1.586;2023-02-28T07:06:24;1.70;66.00
61374;DHT22;47242;48.158;-1.586;2023-02-28T07:08:51;1.70;66.10
61374;DHT22;47242;48.158;-1.586;2023-02-28T07:11:21;1.70;66.20
61374;DHT22;47242;48.158;-1.586;2023-02-28T07:13:49;1.70;66.00
61374;DHT22;47242;48.158;-1.586;2023-02-28T07:16:14;1.70;66.10
61374;DHT22;47242;48.158;-1.586;2023-02-28T07:18:40;1.70;66.10
61374;DHT22;47242;48.158;-1.586;2023-02-28T07:21:08;1.70;66.20
61374;DHT22;47242;48.158;-1.586;2023-02-28T07:23:34;1.70;66.30
61374;DHT22;47242;48.158;-1.586;2023-02-28T07:25:59;1.70;66.20
61374;DHT22;47242;48.158;-1.586;2023-02-28T07:28:25;1.70;66.20
61374;DHT22;47242;48.158;-1.586;2023-02-28T07:30:51;1.70;66.30
61374;DHT22;47242;48.158;-1.586;2023-02-28T07:33:17;1.70;66.40
61374;DHT22;47242;48.158;-1.586;2023-02-28T07:35:43;1.70;66.50
61374;DHT22;47242;48.158;-1.586;2023-02-28T07:38:09;2.20;66.00
61374;DHT22;47242;48.158;-1.586;2023-02-28T07:40:35;2.80;64.70
61374;DHT22;47242;48.158;-1.586;2023-02-28T07:43:02;3.80;62.50
61374;DHT22;47242;48.158;-1.586;2023-02-28T07:45:29;5.10;59.00
61374;DHT22;47242;48.158;-1.586;2023-02-28T07:47:55;5.90;56.10
61374;DHT22;47242;48.158;-1.586;2023-02-28T07:50:21;6.30;54.70
61374;DHT22;47242;48.158;-1.586;2023-02-28T07:52:47;7.50;51.60
61374;DHT22;47242;48.158;-1.586;2023-02-28T07:55:13;8.40;48.90
61374;DHT22;47242;48.158;-1.586;2023-02-28T07:57:39;9.20;47.90
61374;DHT22;47242;48.158;-1.586;2023-02-28T08:00:06;9.50;46.00
61374;DHT22;47242;48.158;-1.586;2023-02-28T08:02:32;9.70;45.00
61374;DHT22;47242;48.158;-1.586;2023-02-28T08:04:59;9.50;44.40
61374;DHT22;47242;48.158;-1.586;2023-02-28T08:07:25;9.20;44.90
61374;DHT22;47242;48.158;-1.586;2023-02-28T08:09:51;9.00;45.40
61374;DHT22;47242;48.158;-1.586;2023-02-28T08:12:16;8.70;46.10
61374;DHT22;47242;48.158;-1.586;2023-02-28T08:14:42;8.80;45.70
61374;DHT22;47242;48.158;-1.586;2023-02-28T08:17:09;8.90;45.50
61374;DHT22;47242;48.158;-1.586;2023-02-28T08:19:35;9.00;45.10
61374;DHT22;47242;48.158;-1.586;2023-02-28T08:22:00;9.00;44.80
61374;DHT22;47242;48.158;-1.586;2023-02-28T08:24:26;9.10;44.80
61374;DHT22;47242;48.158;-1.586;2023-02-28T08:26:52;8.60;45.10
61374;DHT22;47242;48.158;-1.586;2023-02-28T08:29:17;8.60;45.90
61374;DHT22;47242;48.158;-1.586;2023-02-28T08:31:43;9.10;45.60
61374;DHT22;47242;48.158;-1.586;2023-02-28T08:34:11;9.40;44.50
61374;DHT22;47242;48.158;-1.586;2023-02-28T08:36:38;9.90;44.00
61374;DHT22;47242;48.158;-1.586;2023-02-28T08:39:05;9.70;43.80
61374;DHT22;47242;48.158;-1.586;2023-02-28T08:41:31;10.00;43.40
61374;DHT22;47242;48.158;-1.586;2023-02-28T08:43:57;10.20;43.00
61374;DHT22;47242;48.158;-1.586;2023-02-28T08:46:22;10.30;42.20
61374;DHT22;47242;48.158;-1.586;2023-02-28T08:48:52;10.70;42.10
61374;DHT22;47242;48.158;-1.586;2023-02-28T08:51:18;11.10;41.30
61374;DHT22;47242;48.158;-1.586;2023-02-28T08:53:47;11.80;40.30
61374;DHT22;47242;48.158;-1.586;2023-02-28T08:56:15;12.30;39.30
61374;DHT22;47242;48.158;-1.586;2023-02-28T08:58:42;12.50;38.30
61374;DHT22;47242;48.158;-1.586;2023-02-28T09:01:19;12.50;38.20
61374;DHT22;47242;48.158;-1.586;2023-02-28T09:03:47;12.50;37.80
61374;DHT22;47242;48.158;-1.586;2023-02-28T09:06:14;12.50;38.30
61374;DHT22;47242;48.158;-1.586;2023-02-28T09:08:40;12.70;37.70
61374;DHT22;47242;48.158;-1.586;2023-02-28T09:11:07;12.90;37.10
61374;DHT22;47242;48.158;-1.586;2023-02-28T09:13:33;12.80;36.40
61374;DHT22;47242;48.158;-1.586;2023-02-28T09:16:00;12.50;36.30
61374;DHT22;47242;48.158;-1.586;2023-02-28T09:18:27;12.30;37.60
61374;DHT22;47242;48.158;-1.586;2023-02-28T09:20:53;12.10;36.80
61374;DHT22;47242;48.158;-1.586;2023-02-28T09:23:19;12.20;36.80
61374;DHT22;47242;48.158;-1.586;2023-02-28T09:25:51;12.50;37.10
61374;DHT22;47242;48.158;-1.586;2023-02-28T09:28:17;12.90;35.80
61374;DHT22;47242;48.158;-1.586;2023-02-28T09:30:48;13.10;34.90
61374;DHT22;47242;48.158;-1.586;2023-02-28T09:33:15;13.40;34.40
61374;DHT22;47242;48.158;-1.586;2023-02-28T09:35:41;14.00;33.90
61374;DHT22;47242;48.158;-1.586;2023-02-28T09:38:08;14.30;32.00
61374;DHT22;47242;48.158;-1.586;2023-02-28T09:40:49;14.60;31.40
61374;DHT22;47242;48.158;-1.586;2023-02-28T09:43:16;15.10;31.20
61374;DHT22;47242;48.158;-1.586;2023-02-28T09:45:47;15.50;30.70
61374;DHT22;47242;48.158;-1.586;2023-02-28T09:48:20;15.80;29.30
61374;DHT22;47242;48.158;-1.586;2023-02-28T09:50:49;15.80;29.60
61374;DHT22;47242;48.158;-1.586;2023-02-28T09:53:36;16.00;29.10
61374;DHT22;47242;48.158;-1.586;2023-02-28T09:56:08;16.20;28.50
61374;DHT22;47242;48.158;-1.586;2023-02-28T10:09:46;14.90;29.20
61374;DHT22;47242;48.158;-1.586;2023-02-28T10:12:16;14.70;30.30
61374;DHT22;47242;48.158;-1.586;2023-02-28T10:14:45;14.50;29.90
61374;DHT22;47242;48.158;-1.586;2023-02-28T10:17:19;13.90;30.20
61374;DHT22;47242;48.158;-1.586;2023-02-28T10:22:22;13.10;31.30
61374;DHT22;47242;48.158;-1.586;2023-02-28T10:24:51;12.80;31.80
61374;DHT22;47242;48.158;-1.586;2023-02-28T10:27:23;12.10;32.30
61374;DHT22;47242;48.158;-1.586;2023-02-28T10:30:00;11.40;32.80
61374;DHT22;47242;48.158;-1.586;2023-02-28T10:32:32;10.90;34.10
61374;DHT22;47242;48.158;-1.586;2023-02-28T10:37:27;10.40;36.20
61374;DHT22;47242;48.158;-1.586;2023-02-28T10:39:53;10.00;36.70
61374;DHT22;47242;48.158;-1.586;2023-02-28T10:42:28;9.70;37.30
61374;DHT22;47242;48.158;-1.586;2023-02-28T10:47:53;9.30;36.70
61374;DHT22;47242;48.158;-1.586;2023-02-28T10:50:45;9.00;36.90
61374;DHT22;47242;48.158;-1.586;2023-02-28T11:02:08;8.80;37.40
61374;DHT22;47242;48.158;-1.586;2023-02-28T11:07:20;8.70;38.00
61374;DHT22;47242;48.158;-1.586;2023-02-28T11:09:51;8.70;38.10
61374;DHT22;47242;48.158;-1.586;2023-02-28T11:12:28;8.70;38.10
61374;DHT22;47242;48.158;-1.586;2023-02-28T11:14:57;8.70;38.00
61374;DHT22;47242;48.158;-1.586;2023-02-28T11:17:28;8.60;37.90
61374;DHT22;47242;48.158;-1.586;2023-02-28T11:20:03;8.50;38.10
61374;DHT22;47242;48.158;-1.586;2023-02-28T11:22:36;8.50;37.80
61374;DHT22;47242;48.158;-1.586;2023-02-28T11:25:09;8.50;37.90
61374;DHT22;47242;48.158;-1.586;2023-02-28T11:28:02;8.50;38.10
61374;DHT22;47242;48.158;-1.586;2023-02-28T11:30:39;8.60;38.60
61374;DHT22;47242;48.158;-1.586;2023-02-28T11:33:31;8.50;38.10
61374;DHT22;47242;48.158;-1.586;2023-02-28T11:36:08;8.60;38.30
61374;DHT22;47242;48.158;-1.586;2023-02-28T11:38:35;8.60;38.30
61374;DHT22;47242;48.158;-1.586;2023-02-28T11:44:08;8.70;38.40
61374;DHT22;47242;48.158;-1.586;2023-02-28T11:46:49;8.70;38.20
61374;DHT22;47242;48.158;-1.586;2023-02-28T11:52:26;8.70;38.50
61374;DHT22;47242;48.158;-1.586;2023-02-28T11:55:26;8.70;38.20
61374;DHT22;47242;48.158;-1.586;2023-02-28T12:11:56;9.00;39.20
61374;DHT22;47242;48.158;-1.586;2023-02-28T12:17:20;9.00;39.10
61374;DHT22;47242;48.158;-1.586;2023-02-28T12:20:13;9.00;39.40
61374;DHT22;47242;48.158;-1.586;2023-02-28T12:25:29;8.90;39.30
61374;DHT22;47242;48.158;-1.586;2023-02-28T12:28:01;8.90;39.40
61374;DHT22;47242;48.158;-1.586;2023-02-28T12:30:33;9.00;39.80
61374;DHT22;47242;48.158;-1.586;2023-02-28T12:33:09;9.00;39.80
61374;DHT22;47242;48.158;-1.586;2023-02-28T12:35:47;9.20;40.40
61374;DHT22;47242;48.158;-1.586;2023-02-28T12:38:29;9.20;39.20
61374;DHT22;47242;48.158;-1.586;2023-02-28T12:41:00;9.30;39.60
61374;DHT22;47242;48.158;-1.586;2023-02-28T12:43:35;9.50;39.90
61374;DHT22;47242;48.158;-1.586;2023-02-28T12:46:07;9.50;39.50
61374;DHT22;47242;48.158;-1.586;2023-02-28T12:48:48;9.30;39.50
61374;DHT22;47242;48.158;-1.586;2023-02-28T12:51:17;9.00;40.50
61374;DHT22;47242;48.158;-1.586;2023-02-28T12:59:34;9.00;41.40
61374;DHT22;47242;48.158;-1.586;2023-02-28T13:05:04;8.90;41.60
61374;DHT22;47242;48.158;-1.586;2023-02-28T13:10:17;8.70;42.10
61374;DHT22;47242;48.158;-1.586;2023-02-28T13:12:52;8.70;42.30
61374;DHT22;47242;48.158;-1.586;2023-02-28T13:17:52;9.00;41.90
61374;DHT22;47242;48.158;-1.586;2023-02-28T13:20:19;9.10;42.10
61374;DHT22;47242;48.158;-1.586;2023-02-28T13:22:48;9.10;42.50
61374;DHT22;47242;48.158;-1.586;2023-02-28T13:28:10;9.60;41.80
61374;DHT22;47242;48.158;-1.586;2023-02-28T13:38:48;9.80;41.00
61374;DHT22;47242;48.158;-1.586;2023-02-28T13:44:05;9.80;41.70
61374;DHT22;47242;48.158;-1.586;2023-02-28T13:49:29;9.40;42.20
61374;DHT22;47242;48.158;-1.586;2023-02-28T13:52:23;9.20;42.90
61374;DHT22;47242;48.158;-1.586;2023-02-28T13:57:49;9.20;43.50
61374;DHT22;47242;48.158;-1.586;2023-02-28T14:03:22;8.90;44.50
61374;DHT22;47242;48.158;-1.586;2023-02-28T14:11:52;8.80;46.00
61374;DHT22;47242;48.158;-1.586;2023-02-28T14:17:03;8.70;46.40
61374;DHT22;47242;48.158;-1.586;2023-02-28T14:19:31;8.80;46.90
61374;DHT22;47242;48.158;-1.586;2023-02-28T14:41:21;8.40;50.70
61374;DHT22;47242;48.158;-1.586;2023-02-28T14:43:53;8.30;52.00
61374;DHT22;47242;48.158;-1.586;2023-02-28T14:46:20;8.30;52.60
61374;DHT22;47242;48.158;-1.586;2023-02-28T14:48:47;8.20;53.30
61374;DHT22;47242;48.158;-1.586;2023-02-28T14:51:19;8.20;53.10
61374;DHT22;47242;48.158;-1.586;2023-02-28T14:53:50;8.30;53.40
61374;DHT22;47242;48.158;-1.586;2023-02-28T14:56:26;8.30;52.90
61374;DHT22;47242;48.158;-1.586;2023-02-28T14:58:54;8.30;53.10
61374;DHT22;47242;48.158;-1.586;2023-02-28T15:01:22;8.40;53.10
61374;DHT22;47242;48.158;-1.586;2023-02-28T15:03:57;8.40;53.10
61374;DHT22;47242;48.158;-1.586;2023-02-28T15:06:23;8.50;52.80
61374;DHT22;47242;48.158;-1.586;2023-02-28T15:09:24;8.60;52.90
61374;DHT22;47242;48.158;-1.586;2023-02-28T15:11:50;8.40;53.10
61374;DHT22;47242;48.158;-1.586;2023-02-28T15:14:21;8.40;53.50
61374;DHT22;47242;48.158;-1.586;2023-02-28T15:16:52;8.30;54.00
61374;DHT22;47242;48.158;-1.586;2023-02-28T15:19:27;8.30;54.70
61374;DHT22;47242;48.158;-1.586;2023-02-28T15:22:08;8.30;55.00
61374;DHT22;47242;48.158;-1.586;2023-02-28T15:24:43;8.20;55.40
61374;DHT22;47242;48.158;-1.586;2023-02-28T15:29:48;8.00;57.50
61374;DHT22;47242;48.158;-1.586;2023-02-28T15:32:32;8.00;59.70
61374;DHT22;47242;48.158;-1.586;2023-02-28T15:34:59;7.80;60.80
61374;DHT22;47242;48.158;-1.586;2023-02-28T15:40:37;7.60;62.10
61374;DHT22;47242;48.158;-1.586;2023-02-28T15:48:24;7.40;63.60
61374;DHT22;47242;48.158;-1.586;2023-02-28T15:51:29;7.30;64.10
61374;DHT22;47242;48.158;-1.586;2023-02-28T15:54:06;7.30;64.10
61374;DHT22;47242;48.158;-1.586;2023-02-28T15:56:44;7.30;64.40
61374;DHT22;47242;48.158;-1.586;2023-02-28T15:59:19;7.20;64.80
61374;DHT22;47242;48.158;-1.586;2023-02-28T16:01:46;7.30;65.10
61374;DHT22;47242;48.158;-1.586;2023-02-28T16:04:18;7.20;65.20
61374;DHT22;47242;48.158;-1.586;2023-02-28T16:06:45;7.20;65.40
61374;DHT22;47242;48.158;-1.586;2023-02-28T16:09:16;7.20;65.60
61374;DHT22;47242;48.158;-1.586;2023-02-28T16:11:49;7.20;65.70
61374;DHT22;47242;48.158;-1.586;2023-02-28T16:14:22;7.30;65.50
61374;DHT22;47242;48.158;-1.586;2023-02-28T16:16:53;7.30;65.30
61374;DHT22;47242;48.158;-1.586;2023-02-28T16:19:20;7.40;65.30
61374;DHT22;47242;48.158;-1.586;2023-02-28T16:21:46;7.30;65.30
61374;DHT22;47242;48.158;-1.586;2023-02-28T16:24:12;7.30;65.20
61374;DHT22;47242;48.158;-1.586;2023-02-28T16:26:42;7.30;65.50
61374;DHT22;47242;48.158;-1.586;2023-02-28T16:29:15;7.20;66.00
61374;DHT22;47242;48.158;-1.586;2023-02-28T16:31:44;7.20;66.40
61374;DHT22;47242;48.158;-1.586;2023-02-28T16:34:09;7.20;66.50
61374;DHT22;47242;48.158;-1.586;2023-02-28T16:36:35;7.20;66.50
61374;DHT22;47242;48.158;-1.586;2023-02-28T16:39:01;7.10;66.90
61374;DHT22;47242;48.158;-1.586;2023-02-28T16:41:28;7.10;66.90
61374;DHT22;47242;48.158;-1.586;2023-02-28T16:43:56;7.20;66.90
61374;DHT22;47242;48.158;-1.586;2023-02-28T16:46:33;7.20;67.00
61374;DHT22;47242;48.158;-1.586;2023-02-28T16:48:59;7.20;67.10
61374;DHT22;47242;48.158;-1.586;2023-02-28T16:51:25;7.20;67.00
61374;DHT22;47242;48.158;-1.586;2023-02-28T16:53:51;7.20;67.30
61374;DHT22;47242;48.158;-1.586;2023-02-28T16:56:22;7.20;67.50
61374;DHT22;47242;48.158;-1.586;2023-02-28T16:58:49;7.20;67.30
61374;DHT22;47242;48.158;-1.586;2023-02-28T17:01:17;7.20;67.50
61374;DHT22;47242;48.158;-1.586;2023-02-28T17:03:47;7.20;67.60
61374;DHT22;47242;48.158;-1.586;2023-02-28T17:06:26;7.20;67.60
61374;DHT22;47242;48.158;-1.586;2023-02-28T17:08:54;7.20;67.40
61374;DHT22;47242;48.158;-1.586;2023-02-28T17:11:20;7.10;67.70
61374;DHT22;47242;48.158;-1.586;2023-02-28T17:13:46;7.20;67.80
61374;DHT22;47242;48.158;-1.586;2023-02-28T17:16:26;7.20;67.80
61374;DHT22;47242;48.158;-1.586;2023-02-28T17:18:54;7.20;67.70
61374;DHT22;47242;48.158;-1.586;2023-02-28T17:21:19;7.20;67.80
61374;DHT22;47242;48.158;-1.586;2023-02-28T17:23:45;7.20;68.00
61374;DHT22;47242;48.158;-1.586;2023-02-28T17:26:20;7.20;68.10
61374;DHT22;47242;48.158;-1.586;2023-02-28T17:28:48;7.10;68.50
61374;DHT22;47242;48.158;-1.586;2023-02-28T17:31:13;7.00;68.70
61374;DHT22;47242;48.158;-1.586;2023-02-28T17:33:39;7.10;68.80
61374;DHT22;47242;48.158;-1.586;2023-02-28T17:36:05;7.10;68.90
61374;DHT22;47242;48.158;-1.586;2023-02-28T17:38:31;7.10;69.00
61374;DHT22;47242;48.158;-1.586;2023-02-28T17:40:57;7.10;69.40
61374;DHT22;47242;48.158;-1.586;2023-02-28T17:43:24;7.00;69.50
61374;DHT22;47242;48.158;-1.586;2023-02-28T17:45:50;7.00;69.70
61374;DHT22;47242;48.158;-1.586;2023-02-28T17:48:16;7.00;69.60
61374;DHT22;47242;48.158;-1.586;2023-02-28T17:50:42;7.10;69.80
61374;DHT22;47242;48.158;-1.586;2023-02-28T17:53:08;7.10;69.70
61374;DHT22;47242;48.158;-1.586;2023-02-28T17:55:33;7.10;69.90
61374;DHT22;47242;48.158;-1.586;2023-02-28T17:58:00;7.10;69.70
61374;DHT22;47242;48.158;-1.586;2023-02-28T18:00:26;7.10;69.80
61374;DHT22;47242;48.158;-1.586;2023-02-28T18:02:51;7.20;69.70
61374;DHT22;47242;48.158;-1.586;2023-02-28T18:05:17;7.10;70.10
61374;DHT22;47242;48.158;-1.586;2023-02-28T18:07:43;7.10;70.20
61374;DHT22;47242;48.158;-1.586;2023-02-28T18:10:15;7.20;69.90
61374;DHT22;47242;48.158;-1.586;2023-02-28T18:12:48;7.10;70.40
61374;DHT22;47242;48.158;-1.586;2023-02-28T18:15:15;7.10;70.90
61374;DHT22;47242;48.158;-1.586;2023-02-28T18:17:41;7.00;71.10
61374;DHT22;47242;48.158;-1.586;2023-02-28T18:20:08;6.90;71.80
61374;DHT22;47242;48.158;-1.586;2023-02-28T18:22:35;7.00;71.80
61374;DHT22;47242;48.158;-1.586;2023-02-28T18:25:02;7.00;72.20
61374;DHT22;47242;48.158;-1.586;2023-02-28T18:27:30;7.00;72.40
61374;DHT22;47242;48.158;-1.586;2023-02-28T18:29:56;7.00;72.60
61374;DHT22;47242;48.158;-1.586;2023-02-28T18:32:22;7.00;72.60
61374;DHT22;47242;48.158;-1.586;2023-02-28T18:34:47;7.00;72.30
61374;DHT22;47242;48.158;-1.586;2023-02-28T18:37:13;7.00;72.60
61374;DHT22;47242;48.158;-1.586;2023-02-28T18:39:40;7.00;73.50
61374;DHT22;47242;48.158;-1.586;2023-02-28T18:42:06;6.90;74.50
61374;DHT22;47242;48.158;-1.586;2023-02-28T18:44:36;6.70;76.00
61374;DHT22;47242;48.158;-1.586;2023-02-28T18:47:02;6.50;77.90
61374;DHT22;47242;48.158;-1.586;2023-02-28T18:49:30;6.20;78.40
61374;DHT22;47242;48.158;-1.586;2023-02-28T18:51:58;5.80;78.40
61374;DHT22;47242;48.158;-1.586;2023-02-28T18:54:24;5.70;81.10
61374;DHT22;47242;48.158;-1.586;2023-02-28T18:56:50;5.40;80.60
61374;DHT22;47242;48.158;-1.586;2023-02-28T18:59:19;4.60;83.50
61374;DHT22;47242;48.158;-1.586;2023-02-28T19:01:47;4.60;85.20
61374;DHT22;47242;48.158;-1.586;2023-02-28T19:04:14;4.60;86.40
61374;DHT22;47242;48.158;-1.586;2023-02-28T19:06:39;4.40;85.30
61374;DHT22;47242;48.158;-1.586;2023-02-28T19:09:07;4.20;84.10
61374;DHT22;47242;48.158;-1.586;2023-02-28T19:11:33;4.20;84.50
61374;DHT22;47242;48.158;-1.586;2023-02-28T19:13:59;4.10;84.30
61374;DHT22;47242;48.158;-1.586;2023-02-28T19:16:25;4.20;84.20
61374;DHT22;47242;48.158;-1.586;2023-02-28T19:18:52;4.20;84.20
61374;DHT22;47242;48.158;-1.586;2023-02-28T19:21:20;4.40;84.70
61374;DHT22;47242;48.158;-1.586;2023-02-28T19:23:46;4.60;84.00
61374;DHT22;47242;48.158;-1.586;2023-02-28T19:26:21;4.50;83.40
61374;DHT22;47242;48.158;-1.586;2023-02-28T19:28:47;4.60;84.20
61374;DHT22;47242;48.158;-1.586;2023-02-28T19:31:21;4.80;84.10
61374;DHT22;47242;48.158;-1.586;2023-02-28T19:33:48;5.00;83.70
61374;DHT22;47242;48.158;-1.586;2023-02-28T19:36:14;5.10;82.50
61374;DHT22;47242;48.158;-1.586;2023-02-28T19:38:41;5.20;82.50
61374;DHT22;47242;48.158;-1.586;2023-02-28T19:41:13;5.20;82.10
61374;DHT22;47242;48.158;-1.586;2023-02-28T19:43:41;5.10;82.70
61374;DHT22;47242;48.158;-1.586;2023-02-28T19:46:08;5.10;82.20
61374;DHT22;47242;48.158;-1.586;2023-02-28T19:48:34;5.10;82.80
61374;DHT22;47242;48.158;-1.586;2023-02-28T19:51:06;5.20;82.50
61374;DHT22;47242;48.158;-1.586;2023-02-28T19:53:34;5.20;81.90
61374;DHT22;47242;48.158;-1.586;2023-02-28T19:56:00;5.10;81.20
61374;DHT22;47242;48.158;-1.586;2023-02-28T19:58:27;5.10;81.70
61374;DHT22;47242;48.158;-1.586;2023-02-28T20:00:53;5.10;81.90
61374;DHT22;47242;48.158;-1.586;2023-02-28T20:03:19;5.20;82.60
61374;DHT22;47242;48.158;-1.586;2023-02-28T20:05:45;5.20;82.10
61374;DHT22;47242;48.158;-1.586;2023-02-28T20:08:11;5.20;81.90
61374;DHT22;47242;48.158;-1.586;2023-02-28T20:10:37;5.20;81.60
61374;DHT22;47242;48.158;-1.586;2023-02-28T20:13:03;5.20;81.50
61374;DHT22;47242;48.158;-1.586;2023-02-28T20:15:29;5.20;81.80
61374;DHT22;47242;48.158;-1.586;2023-02-28T20:17:58;5.20;81.40
61374;DHT22;47242;48.158;-1.586;2023-02-28T20:20:25;5.20;81.70
61374;DHT22;47242;48.158;-1.586;2023-02-28T20:22:53;5.20;81.50
61374;DHT22;47242;48.158;-1.586;2023-02-28T20:25:26;5.20;81.10
61374;DHT22;47242;48.158;-1.586;2023-02-28T20:27:52;5.20;80.50
61374;DHT22;47242;48.158;-1.586;2023-02-28T20:30:17;5.10;81.60
61374;DHT22;47242;48.158;-1.586;2023-02-28T20:32:50;5.10;81.70
61374;DHT22;47242;48.158;-1.586;2023-02-28T20:35:15;5.00;81.20
61374;DHT22;47242;48.158;-1.586;2023-02-28T20:37:41;4.90;81.40
61374;DHT22;47242;48.158;-1.586;2023-02-28T20:40:07;4.90;81.60
61374;DHT22;47242;48.158;-1.586;2023-02-28T20:42:34;4.80;81.30
61374;DHT22;47242;48.158;-1.586;2023-02-28T20:45:00;4.80;80.90
61374;DHT22;47242;48.158;-1.586;2023-02-28T20:47:25;4.80;81.20
61374;DHT22;47242;48.158;-1.586;2023-02-28T20:49:55;4.80;81.70
61374;DHT22;47242;48.158;-1.586;2023-02-28T20:52:20;4.70;80.80
61374;DHT22;47242;48.158;-1.586;2023-02-28T20:54:46;4.60;80.10
61374;DHT22;47242;48.158;-1.586;2023-02-28T20:57:11;4.50;80.80
61374;DHT22;47242;48.158;-1.586;2023-02-28T20:59:37;4.30;80.90
61374;DHT22;47242;48.158;-1.586;2023-02-28T21:02:04;4.30;81.60
61374;DHT22;47242;48.158;-1.586;2023-02-28T21:04:30;4.30;81.30
61374;DHT22;47242;48.158;-1.586;2023-02-28T21:06:58;4.20;81.00
61374;DHT22;47242;48.158;-1.586;2023-02-28T21:09:24;4.20;81.60
61374;DHT22;47242;48.158;-1.586;2023-02-28T21:11:52;4.00;81.30
61374;DHT22;47242;48.158;-1.586;2023-02-28T21:14:18;4.10;81.30
61374;DHT22;47242;48.158;-1.586;2023-02-28T21:16:44;4.00;81.20
61374;DHT22;47242;48.158;-1.586;2023-02-28T21:19:11;4.00;81.90
61374;DHT22;47242;48.158;-1.586;2023-02-28T21:21:41;4.00;82.10
61374;DHT22;47242;48.158;-1.586;2023-02-28T21:24:09;3.90;82.00
61374;DHT22;47242;48.158;-1.586;2023-02-28T21:26:38;4.00;81.90
61374;DHT22;47242;48.158;-1.586;2023-02-28T21:29:03;4.00;82.10
61374;DHT22;47242;48.158;-1.586;2023-02-28T21:31:32;4.00;81.40
61374;DHT22;47242;48.158;-1.586;2023-02-28T21:33:59;4.00;82.00
61374;DHT22;47242;48.158;-1.586;2023-02-28T21:36:28;3.90;81.70
61374;DHT22;47242;48.158;-1.586;2023-02-28T21:39:05;4.00;81.80
61374;DHT22;47242;48.158;-1.586;2023-02-28T21:41:32;3.90;81.60
61374;DHT22;47242;48.158;-1.586;2023-02-28T21:43:58;4.00;81.40
61374;DHT22;47242;48.158;-1.586;2023-02-28T21:46:27;4.00;81.40
61374;DHT22;47242;48.158;-1.586;2023-02-28T21:48:57;3.90;81.30
61374;DHT22;47242;48.158;-1.586;2023-02-28T21:51:28;3.90;81.10
61374;DHT22;47242;48.158;-1.586;2023-02-28T21:53:56;3.80;81.20
61374;DHT22;47242;48.158;-1.586;2023-02-28T21:56:25;3.80;81.40
61374;DHT22;47242;48.158;-1.586;2023-02-28T21:58:51;3.80;81.50
61374;DHT22;47242;48.158;-1.586;2023-02-28T22:01:26;3.90;81.60
61374;DHT22;47242;48.158;-1.586;2023-02-28T22:03:58;3.90;81.30
61374;DHT22;47242;48.158;-1.586;2023-02-28T22:06:26;3.90;81.20
61374;DHT22;47242;48.158;-1.586;2023-02-28T22:08:54;4.00;80.70
61374;DHT22;47242;48.158;-1.586;2023-02-28T22:11:22;3.90;80.90
61374;DHT22;47242;48.158;-1.586;2023-02-28T22:13:52;3.90;81.30
61374;DHT22;47242;48.158;-1.586;2023-02-28T22:16:19;3.90;81.10
61374;DHT22;47242;48.158;-1.586;2023-02-28T22:18:45;4.00;81.30
61374;DHT22;47242;48.158;-1.586;2023-02-28T22:21:12;3.90;81.10
61374;DHT22;47242;48.158;-1.586;2023-02-28T22:23:42;3.90;80.30
61374;DHT22;47242;48.158;-1.586;2023-02-28T22:26:28;3.90;80.60
61374;DHT22;47242;48.158;-1.586;2023-02-28T22:28:53;3.80;81.10
